createdAt,value
2023-02-15T00:00:15.774Z,41.60
2023-02-15T00:01:17.740Z,43.72
2023-02-15T00:02:21.128Z,44.20
2023-02-15T00:03:23.505Z,42.65
2023-02-15T00:04:48.001Z,44.80
2023-02-15T00:05:51.074Z,43.83
2023-02-15T00:06:53.531Z,44.92
2023-02-15T00:07:55.735Z,43.85
2023-02-15T00:08:58.419Z,43.28
2023-02-15T00:10:00.560Z,44.55
2023-02-15T00:11:11.434Z,47.70
2023-02-15T00:12:13.042Z,45.70
2023-02-15T00:13:15.474Z,42.45
2023-02-15T00:14:20.973Z,47.33
2023-02-15T00:15:22.667Z,48.53
2023-02-15T00:16:24.854Z,48.83
2023-02-15T00:17:29.572Z,47.42
2023-02-15T00:18:32.357Z,46.78
2023-02-15T00:19:34.361Z,47.45
2023-02-15T00:20:36.423Z,47.25
2023-02-15T00:21:40.050Z,47.25
2023-02-15T00:22:43.014Z,46.25
2023-02-15T00:23:45.227Z,49.17
2023-02-15T00:24:49.130Z,47.65
2023-02-15T00:25:51.127Z,46.25
2023-02-15T00:26:55.092Z,45.90
2023-02-15T00:27:57.935Z,47.00
2023-02-15T00:29:00.654Z,43.47
2023-02-15T00:30:02.463Z,46.22
2023-02-15T00:31:13.194Z,44.80
2023-02-15T00:32:15.100Z,46.45
2023-02-15T00:33:16.750Z,46.60
2023-02-15T00:34:21.601Z,44.30
2023-02-15T00:35:23.686Z,45.42
2023-02-15T00:36:25.667Z,44.28
2023-02-15T00:37:28.056Z,42.78
2023-02-15T00:38:31.185Z,45.13
2023-02-15T00:39:33.271Z,43.63
2023-02-15T00:40:34.932Z,47.97
2023-02-15T00:41:36.873Z,40.33
2023-02-15T00:42:38.651Z,46.38
2023-02-15T00:43:40.950Z,47.80
2023-02-15T00:44:43.623Z,46.05
2023-02-15T00:45:46.769Z,47.22
2023-02-15T00:46:48.952Z,51.05
2023-02-15T00:47:51.130Z,47.20
2023-02-15T00:48:52.844Z,43.88
2023-02-15T00:49:54.446Z,48.00
2023-02-15T00:51:00.383Z,45.00
2023-02-15T00:52:02.236Z,47.38
2023-02-15T00:53:04.489Z,46.25
2023-02-15T00:54:07.843Z,45.90
2023-02-15T00:55:09.600Z,43.58
2023-02-15T00:56:12.869Z,45.50
2023-02-15T00:57:14.836Z,42.92
2023-02-15T00:58:17.538Z,46.58
2023-02-15T00:59:20.005Z,44.92
2023-02-15T01:00:22.422Z,43.72
2023-02-15T01:01:25.413Z,46.58
2023-02-15T01:02:27.560Z,41.70
2023-02-15T01:03:29.572Z,46.40
2023-02-15T01:04:31.485Z,44.30
2023-02-15T01:05:34.195Z,45.60
2023-02-15T01:06:35.867Z,42.85
2023-02-15T01:07:37.722Z,43.55
2023-02-15T01:08:40.092Z,41.17
2023-02-15T01:09:41.873Z,41.85
2023-02-15T01:10:45.095Z,40.33
2023-02-15T01:11:46.835Z,40.30
2023-02-15T01:12:48.790Z,39.33
2023-02-15T01:13:53.208Z,39.60
2023-02-15T01:14:54.962Z,40.80
2023-02-15T01:15:58.177Z,40.10
2023-02-15T01:17:00.993Z,43.17
2023-02-15T01:18:03.688Z,40.78
2023-02-15T01:19:05.731Z,41.97
2023-02-15T01:20:08.224Z,42.83
2023-02-15T01:21:18.287Z,40.40
2023-02-15T01:22:20.625Z,40.80
2023-02-15T01:23:22.771Z,38.65
2023-02-15T01:24:24.627Z,43.40
2023-02-15T01:25:27.628Z,40.63
2023-02-15T01:26:29.358Z,41.03
2023-02-15T01:27:33.898Z,35.78
2023-02-15T01:28:37.138Z,39.45
2023-02-15T01:29:39.701Z,36.95
2023-02-15T01:30:41.547Z,34.45
2023-02-15T01:31:43.594Z,40.00
2023-02-15T01:32:45.731Z,38.97
2023-02-15T01:33:48.655Z,39.90
2023-02-15T01:34:51.131Z,38.42
2023-02-15T01:36:00.842Z,35.40
2023-02-15T01:37:04.964Z,35.67
2023-02-15T01:38:06.748Z,36.92
2023-02-15T01:39:11.001Z,37.53
2023-02-15T01:40:15.860Z,37.20
2023-02-15T01:41:28.676Z,38.60
2023-02-15T01:42:31.751Z,38.70
2023-02-15T01:43:47.768Z,39.53
2023-02-15T01:45:26.384Z,38.90
2023-02-15T01:46:41.379Z,40.35
2023-02-15T01:47:52.221Z,40.53
2023-02-15T01:48:59.683Z,36.88
2023-02-15T01:50:13.373Z,38.33
2023-02-15T01:51:20.291Z,36.63
2023-02-15T01:52:23.692Z,36.65
2023-02-15T01:53:33.938Z,38.60
2023-02-15T01:54:40.662Z,36.67
2023-02-15T01:55:50.306Z,35.75
2023-02-15T01:56:52.212Z,38.40
2023-02-15T01:57:55.050Z,42.55
2023-02-15T01:59:00.396Z,43.50
2023-02-15T02:00:06.601Z,41.60
2023-02-15T02:01:10.353Z,38.50
2023-02-15T02:02:15.698Z,40.40
2023-02-15T02:03:18.813Z,35.58
2023-02-15T02:04:30.264Z,35.67
2023-02-15T02:05:32.723Z,36.63
2023-02-15T02:06:39.008Z,32.17
2023-02-15T02:07:45.053Z,37.58
2023-02-15T02:08:48.432Z,38.70
2023-02-15T02:09:50.540Z,34.85
2023-02-15T02:10:52.629Z,36.10
2023-02-15T02:11:55.678Z,34.75
2023-02-15T02:13:02.361Z,33.17
2023-02-15T02:14:05.518Z,32.22
2023-02-15T02:15:08.043Z,34.00
2023-02-15T02:16:22.022Z,33.45
2023-02-15T02:17:38.950Z,32.75
2023-02-15T02:19:02.637Z,33.03
2023-02-15T02:20:22.348Z,32.88
2023-02-15T02:21:56.230Z,29.63
2023-02-15T02:23:07.000Z,30.10
2023-02-15T02:24:39.997Z,28.92
2023-02-15T02:26:19.627Z,30.27
2023-02-15T02:27:24.498Z,33.03
2023-02-15T02:28:29.124Z,32.40
2023-02-15T02:29:42.541Z,34.47
2023-02-15T02:30:50.334Z,32.95
2023-02-15T02:32:01.283Z,30.95
2023-02-15T02:33:14.689Z,29.83
2023-02-15T02:34:36.191Z,32.35
2023-02-15T02:35:49.923Z,31.63
2023-02-15T02:37:04.723Z,32.13
2023-02-15T02:38:21.623Z,31.55
2023-02-15T02:39:27.660Z,31.80
2023-02-15T02:40:51.013Z,32.40
2023-02-15T02:42:09.427Z,32.55
2023-02-15T02:43:22.427Z,33.13
2023-02-15T02:44:31.088Z,33.45
2023-02-15T02:45:59.687Z,34.50
2023-02-15T02:47:13.203Z,33.95
2023-02-15T02:48:23.953Z,35.65
2023-02-15T02:49:37.423Z,35.38
2023-02-15T02:50:41.233Z,35.05
2023-02-15T02:51:43.125Z,34.00
2023-02-15T02:52:53.848Z,33.65
2023-02-15T02:54:04.989Z,35.00
2023-02-15T02:55:32.314Z,33.08
2023-02-15T02:56:43.805Z,32.80
2023-02-15T02:58:07.227Z,34.35
2023-02-15T02:59:22.656Z,34.53
2023-02-15T03:00:27.516Z,34.05
2023-02-15T03:01:42.705Z,33.85
2023-02-15T03:02:48.492Z,33.10
2023-02-15T03:04:08.984Z,33.47
2023-02-15T03:05:16.666Z,34.25
2023-02-15T03:06:43.469Z,33.88
2023-02-15T03:07:50.065Z,31.25
2023-02-15T03:09:17.913Z,32.28
2023-02-15T03:10:23.197Z,32.55
2023-02-15T03:11:25.033Z,30.63
2023-02-15T03:12:34.027Z,32.20
2023-02-15T03:13:36.866Z,33.47
2023-02-15T03:14:40.076Z,32.88
2023-02-15T03:16:04.303Z,32.70
2023-02-15T03:17:09.259Z,32.28
2023-02-15T03:18:11.414Z,33.70
2023-02-15T03:19:18.721Z,33.53
2023-02-15T03:20:41.029Z,32.53
2023-02-15T03:22:04.599Z,31.95
2023-02-15T03:23:13.744Z,30.45
2023-02-15T03:24:21.750Z,31.98
2023-02-15T03:25:35.586Z,31.52
2023-02-15T03:26:39.282Z,29.95
2023-02-15T03:27:45.479Z,28.83
2023-02-15T03:28:50.757Z,30.58
2023-02-15T03:29:59.337Z,29.70
2023-02-15T03:31:05.185Z,28.50
2023-02-15T03:32:12.094Z,27.63
2023-02-15T03:33:16.011Z,26.10
2023-02-15T03:34:18.970Z,26.55
2023-02-15T03:35:26.133Z,26.58
2023-02-15T03:36:40.350Z,26.40
2023-02-15T03:37:52.249Z,26.83
2023-02-15T03:39:01.195Z,26.60
2023-02-15T03:40:39.641Z,26.30
2023-02-15T03:41:49.762Z,25.20
2023-02-15T03:43:26.375Z,24.50
2023-02-15T03:44:31.279Z,25.77
2023-02-15T03:45:35.400Z,26.83
2023-02-15T03:47:00.055Z,24.85
2023-02-15T03:48:04.624Z,27.25
2023-02-15T03:49:14.856Z,28.30
2023-02-15T03:50:55.964Z,25.63
2023-02-15T03:52:00.326Z,26.50
2023-02-15T03:53:05.399Z,28.38
2023-02-15T03:54:14.417Z,25.30
2023-02-15T03:55:16.496Z,25.67
2023-02-15T03:56:18.133Z,26.13
2023-02-15T03:57:47.814Z,23.70
2023-02-15T03:59:08.408Z,25.27
2023-02-15T04:00:40.859Z,26.73
2023-02-15T04:02:18.255Z,26.58
2023-02-15T04:03:40.764Z,26.02
2023-02-15T04:04:47.147Z,26.35
2023-02-15T04:05:49.308Z,26.63
2023-02-15T04:06:51.013Z,27.52
2023-02-15T04:07:52.790Z,26.05
2023-02-15T04:09:13.220Z,25.85
2023-02-15T04:10:33.841Z,29.42
2023-02-15T04:11:36.013Z,27.70
2023-02-15T04:12:38.000Z,27.35
2023-02-15T04:13:41.030Z,30.35
2023-02-15T04:15:02.760Z,30.08
2023-02-15T04:16:05.550Z,29.58
2023-02-15T04:17:08.864Z,27.15
2023-02-15T04:18:10.938Z,30.55
2023-02-15T04:19:31.376Z,29.45
2023-02-15T04:20:52.632Z,28.38
2023-02-15T04:22:13.274Z,29.67
2023-02-15T04:23:33.384Z,28.90
2023-02-15T04:24:54.992Z,29.65
2023-02-15T04:25:56.702Z,28.67
2023-02-15T04:27:01.717Z,28.92
2023-02-15T04:28:04.346Z,27.45
2023-02-15T04:29:06.173Z,29.85
2023-02-15T04:30:11.883Z,28.83
2023-02-15T04:31:13.896Z,28.65
2023-02-15T04:32:15.866Z,29.05
2023-02-15T04:33:19.659Z,29.55
2023-02-15T04:34:23.240Z,30.02
2023-02-15T04:35:26.861Z,32.25
2023-02-15T04:36:30.206Z,28.52
2023-02-15T04:37:33.145Z,28.75
2023-02-15T04:38:35.015Z,29.13
2023-02-15T04:39:37.515Z,28.05
2023-02-15T04:40:39.126Z,26.80
2023-02-15T04:41:40.978Z,30.90
2023-02-15T04:42:44.858Z,32.78
2023-02-15T04:43:46.978Z,32.00
2023-02-15T04:44:48.980Z,27.23
2023-02-15T04:45:52.735Z,29.13
2023-02-15T04:46:57.731Z,30.50
2023-02-15T04:47:59.687Z,30.63
2023-02-15T04:49:02.848Z,26.38
2023-02-15T04:50:05.275Z,27.50
2023-02-15T04:51:08.316Z,30.42
2023-02-15T04:52:11.504Z,27.40
2023-02-15T04:53:14.657Z,28.50
2023-02-15T04:54:16.832Z,28.25
2023-02-15T04:55:19.217Z,28.55
2023-02-15T04:56:21.892Z,28.10
2023-02-15T04:57:23.814Z,28.80
2023-02-15T04:58:25.830Z,26.58
2023-02-15T04:59:28.748Z,32.13
2023-02-15T05:00:30.410Z,35.95
2023-02-15T05:01:32.577Z,34.22
2023-02-15T05:02:34.193Z,38.35
2023-02-15T05:03:35.947Z,31.88
2023-02-15T05:04:37.697Z,29.10
2023-02-15T05:05:39.777Z,30.17
2023-02-15T05:06:43.899Z,27.23
2023-02-15T05:07:45.940Z,26.95
2023-02-15T05:08:47.664Z,26.38
2023-02-15T05:09:49.426Z,28.65
2023-02-15T05:10:51.631Z,28.33
2023-02-15T05:11:53.779Z,30.98
2023-02-15T05:12:55.569Z,29.75
2023-02-15T05:13:57.271Z,30.98
2023-02-15T05:14:59.015Z,29.23
2023-02-15T05:16:01.250Z,27.23
2023-02-15T05:17:04.420Z,38.03
2023-02-15T05:18:07.322Z,34.67
2023-02-15T05:19:08.959Z,34.30
2023-02-15T05:20:11.036Z,30.40
2023-02-15T05:21:14.716Z,30.88
2023-02-15T05:22:16.408Z,27.88
2023-02-15T05:23:18.175Z,34.17
2023-02-15T05:24:38.478Z,33.67
2023-02-15T05:26:00.776Z,28.23
2023-02-15T05:27:21.138Z,27.20
2023-02-15T05:28:25.014Z,27.60
2023-02-15T05:29:28.130Z,27.65
2023-02-15T05:30:31.858Z,25.65
2023-02-15T05:31:35.436Z,28.42
2023-02-15T05:32:37.949Z,29.17
2023-02-15T05:33:41.469Z,25.30
2023-02-15T05:34:43.386Z,25.25
2023-02-15T05:35:45.350Z,24.02
2023-02-15T05:36:46.970Z,23.88
2023-02-15T05:37:49.808Z,23.38
2023-02-15T05:38:51.691Z,23.60
2023-02-15T05:39:54.711Z,22.45
2023-02-15T05:40:56.558Z,22.50
2023-02-15T05:42:02.145Z,21.70
2023-02-15T05:43:03.848Z,22.23
2023-02-15T05:44:05.786Z,20.98
2023-02-15T05:45:07.868Z,24.40
2023-02-15T05:46:09.904Z,24.38
2023-02-15T05:47:11.833Z,23.60
2023-02-15T05:48:14.244Z,23.40
2023-02-15T05:49:16.214Z,23.90
2023-02-15T05:50:18.060Z,24.00
2023-02-15T05:51:19.677Z,24.15
2023-02-15T05:52:21.871Z,25.05
2023-02-15T05:53:25.088Z,25.55
2023-02-15T05:54:27.607Z,26.17
2023-02-15T05:55:30.361Z,24.02
2023-02-15T05:56:32.334Z,24.05
2023-02-15T05:57:34.159Z,22.80
2023-02-15T05:58:38.372Z,28.25
2023-02-15T05:59:40.270Z,27.65
2023-02-15T06:00:42.218Z,23.45
2023-02-15T06:01:44.927Z,25.30
2023-02-15T06:02:47.029Z,24.65
2023-02-15T06:03:49.081Z,23.60
2023-02-15T06:04:50.831Z,24.20
2023-02-15T06:05:53.643Z,23.17
2023-02-15T06:06:55.552Z,24.80
2023-02-15T06:07:57.402Z,22.98
2023-02-15T06:08:59.839Z,22.73
2023-02-15T06:10:02.125Z,24.58
2023-02-15T06:11:05.346Z,22.35
2023-02-15T06:12:09.698Z,24.15
2023-02-15T06:13:12.160Z,25.13
2023-02-15T06:14:13.770Z,23.50
2023-02-15T06:15:15.959Z,25.00
2023-02-15T06:16:17.972Z,22.55
2023-02-15T06:17:19.922Z,22.30
2023-02-15T06:18:22.142Z,22.80
2023-02-15T06:19:23.883Z,22.23
2023-02-15T06:20:26.238Z,23.10
2023-02-15T06:21:28.260Z,24.05
2023-02-15T06:22:30.209Z,23.65
2023-02-15T06:23:32.093Z,23.38
2023-02-15T06:24:34.200Z,25.02
2023-02-15T06:25:39.732Z,25.42
2023-02-15T06:26:42.050Z,26.75
2023-02-15T06:27:44.115Z,27.02
2023-02-15T06:28:45.886Z,25.73
2023-02-15T06:29:47.744Z,25.27
2023-02-15T06:30:49.395Z,24.23
2023-02-15T06:31:51.288Z,25.02
2023-02-15T06:32:54.180Z,26.45
2023-02-15T06:34:02.172Z,23.73
2023-02-15T06:35:04.593Z,26.30
2023-02-15T06:36:06.674Z,27.88
2023-02-15T06:37:09.643Z,26.67
2023-02-15T06:38:11.674Z,26.10
2023-02-15T06:39:13.596Z,26.80
2023-02-15T06:40:16.109Z,25.50
2023-02-15T06:41:17.916Z,24.20
2023-02-15T06:42:22.264Z,24.15
2023-02-15T06:43:23.992Z,24.85
2023-02-15T06:44:25.977Z,24.60
2023-02-15T06:45:28.264Z,24.35
2023-02-15T06:46:30.275Z,23.63
2023-02-15T06:47:32.419Z,23.45
2023-02-15T06:48:34.271Z,25.98
2023-02-15T06:49:36.148Z,24.25
2023-02-15T06:50:39.290Z,25.80
2023-02-15T06:51:41.343Z,25.08
2023-02-15T06:52:44.364Z,25.17
2023-02-15T06:53:45.980Z,24.48
2023-02-15T06:54:49.449Z,24.10
2023-02-15T06:55:51.610Z,23.88
2023-02-15T06:56:56.428Z,25.88
2023-02-15T06:57:58.466Z,25.23
2023-02-15T06:59:00.648Z,24.77
2023-02-15T07:00:02.623Z,25.30
2023-02-15T07:01:06.228Z,24.50
2023-02-15T07:02:10.939Z,24.92
2023-02-15T07:03:15.055Z,24.80
2023-02-15T07:04:17.173Z,25.90
2023-02-15T07:05:19.068Z,27.13
2023-02-15T07:06:20.993Z,25.63
2023-02-15T07:07:24.079Z,27.33
2023-02-15T07:08:27.286Z,25.08
2023-02-15T07:09:28.928Z,26.65
2023-02-15T07:10:30.933Z,23.88
2023-02-15T07:11:51.489Z,25.00
2023-02-15T07:12:54.982Z,24.60
2023-02-15T07:13:57.452Z,25.25
2023-02-15T07:14:59.869Z,24.83
2023-02-15T07:16:02.000Z,26.27
2023-02-15T07:17:04.020Z,22.90
2023-02-15T07:18:06.423Z,24.27
2023-02-15T07:19:09.649Z,26.05
2023-02-15T07:20:17.947Z,24.80
2023-02-15T07:21:19.613Z,25.45
2023-02-15T07:22:21.605Z,24.50
2023-02-15T07:23:23.779Z,44.92
2023-02-15T07:24:25.511Z,40.75
2023-02-15T07:25:27.160Z,26.55
2023-02-15T07:26:28.900Z,23.08
2023-02-15T07:27:32.208Z,23.27
2023-02-15T07:28:35.882Z,24.67
2023-02-15T07:29:37.970Z,24.13
2023-02-15T07:30:41.467Z,22.00
2023-02-15T07:31:46.631Z,25.00
2023-02-15T07:33:07.485Z,23.67
2023-02-15T07:34:09.189Z,23.23
2023-02-15T07:35:10.876Z,23.98
2023-02-15T07:36:13.151Z,23.55
2023-02-15T07:37:15.257Z,22.02
2023-02-15T07:38:17.354Z,23.15
2023-02-15T07:39:19.530Z,24.10
2023-02-15T07:40:24.219Z,23.58
2023-02-15T07:41:26.556Z,22.08
2023-02-15T07:42:28.102Z,21.88
2023-02-15T07:43:30.659Z,22.00
2023-02-15T07:44:32.704Z,24.45
2023-02-15T07:45:34.823Z,29.00
2023-02-15T07:46:36.568Z,22.58
2023-02-15T07:47:38.287Z,23.00
2023-02-15T07:48:41.370Z,21.95
2023-02-15T07:49:43.828Z,21.70
2023-02-15T07:50:45.813Z,21.02
2023-02-15T07:51:47.428Z,19.42
2023-02-15T07:52:49.275Z,19.90
2023-02-15T07:53:52.680Z,20.90
2023-02-15T07:54:55.057Z,21.25
2023-02-15T07:56:02.982Z,23.10
2023-02-15T07:57:06.613Z,23.65
2023-02-15T07:58:08.499Z,22.25
2023-02-15T07:59:10.461Z,20.02
2023-02-15T08:00:17.945Z,19.40
2023-02-15T08:01:27.246Z,22.30
2023-02-15T08:02:30.064Z,19.70
2023-02-15T08:03:33.598Z,21.10
2023-02-15T08:04:35.588Z,19.27
2023-02-15T08:05:38.372Z,18.23
2023-02-15T08:06:40.822Z,21.13
2023-02-15T08:07:42.592Z,20.88
2023-02-15T08:08:45.682Z,19.70
2023-02-15T08:09:47.715Z,19.60
2023-02-15T08:11:08.050Z,20.77
2023-02-15T08:12:10.034Z,19.83
2023-02-15T08:13:11.873Z,19.33
2023-02-15T08:14:21.864Z,21.75
2023-02-15T08:15:23.984Z,21.23
2023-02-15T08:16:26.887Z,19.98
2023-02-15T08:17:28.542Z,19.77
2023-02-15T08:18:30.490Z,22.65
2023-02-15T08:19:33.580Z,21.15
2023-02-15T08:20:35.888Z,20.92
2023-02-15T08:21:41.347Z,21.27
2023-02-15T08:22:44.185Z,19.13
2023-02-15T08:23:46.389Z,20.70
2023-02-15T08:24:48.666Z,21.00
2023-02-15T08:25:50.551Z,19.63
2023-02-15T08:26:53.339Z,20.02
2023-02-15T08:27:55.166Z,19.20
2023-02-15T08:28:58.831Z,19.15
2023-02-15T08:30:00.871Z,18.30
2023-02-15T08:31:11.444Z,18.25
2023-02-15T08:32:14.923Z,19.45
2023-02-15T08:33:19.316Z,20.00
2023-02-15T08:34:22.899Z,18.75
2023-02-15T08:35:26.124Z,19.95
2023-02-15T08:36:30.051Z,18.55
2023-02-15T08:37:31.790Z,17.98
2023-02-15T08:38:34.681Z,19.60
2023-02-15T08:39:37.810Z,17.63
2023-02-15T08:40:40.056Z,19.00
2023-02-15T08:41:44.462Z,17.88
2023-02-15T08:42:46.060Z,17.90
2023-02-15T08:43:50.423Z,18.92
2023-02-15T08:44:54.242Z,17.77
2023-02-15T08:45:57.089Z,17.25
2023-02-15T08:47:03.967Z,16.60
2023-02-15T08:48:05.746Z,17.45
2023-02-15T08:49:07.936Z,16.73
2023-02-15T08:50:09.885Z,17.30
2023-02-15T08:51:20.198Z,17.30
2023-02-15T08:52:22.270Z,17.50
2023-02-15T08:53:25.003Z,17.33
2023-02-15T08:54:26.717Z,17.02
2023-02-15T08:55:28.338Z,15.93
2023-02-15T08:56:33.637Z,16.35
2023-02-15T08:57:35.294Z,17.75
2023-02-15T08:58:37.092Z,18.40
2023-02-15T08:59:38.941Z,17.38
2023-02-15T09:00:41.347Z,16.85
2023-02-15T09:01:44.230Z,17.15
2023-02-15T09:02:46.741Z,17.83
2023-02-15T09:03:51.188Z,15.63
2023-02-15T09:04:53.906Z,17.77
2023-02-15T09:06:02.433Z,17.55
2023-02-15T09:07:05.908Z,16.27
2023-02-15T09:08:07.672Z,18.73
2023-02-15T09:09:11.670Z,17.08
2023-02-15T09:10:13.498Z,16.42
2023-02-15T09:11:24.982Z,17.13
2023-02-15T09:12:26.697Z,17.05
2023-02-15T09:13:28.394Z,15.32
2023-02-15T09:14:29.983Z,16.30
2023-02-15T09:15:31.915Z,18.48
2023-02-15T09:16:35.815Z,19.65
2023-02-15T09:17:37.946Z,17.90
2023-02-15T09:18:41.023Z,21.65
2023-02-15T09:19:42.707Z,19.85
2023-02-15T09:20:46.078Z,25.50
2023-02-15T09:21:48.420Z,19.10
2023-02-15T09:22:55.749Z,22.30
2023-02-15T09:24:01.046Z,16.83
2023-02-15T09:25:03.627Z,16.50
2023-02-15T09:26:11.061Z,23.65
2023-02-15T09:27:13.348Z,16.40
2023-02-15T09:28:15.027Z,20.67
2023-02-15T09:29:18.234Z,29.00
2023-02-15T09:30:20.280Z,21.20
2023-02-15T09:31:25.441Z,19.27
2023-02-15T09:32:27.251Z,18.83
2023-02-15T09:33:29.349Z,21.98
2023-02-15T09:34:34.036Z,19.85
2023-02-15T09:35:36.533Z,16.90
2023-02-15T09:36:40.736Z,19.70
2023-02-15T09:37:42.703Z,15.35
2023-02-15T09:38:45.542Z,16.70
2023-02-15T09:39:49.141Z,18.33
2023-02-15T09:41:13.303Z,17.50
2023-02-15T09:42:23.907Z,18.65
2023-02-15T09:43:40.001Z,18.63
2023-02-15T09:45:17.038Z,19.20
2023-02-15T09:46:43.922Z,17.20
2023-02-15T09:48:22.923Z,16.23
2023-02-15T09:49:47.238Z,16.55
2023-02-15T09:50:55.017Z,16.85
2023-02-15T09:52:21.394Z,17.17
2023-02-15T09:53:43.857Z,18.67
2023-02-15T09:55:01.553Z,19.10
2023-02-15T09:56:15.383Z,18.77
2023-02-15T09:57:45.221Z,19.38
2023-02-15T09:59:23.130Z,18.80
2023-02-15T10:00:37.175Z,18.05
2023-02-15T10:01:42.272Z,18.15
2023-02-15T10:03:06.200Z,18.10
2023-02-15T10:04:25.887Z,17.77
2023-02-15T10:05:40.843Z,19.42
2023-02-15T10:07:05.834Z,19.55
2023-02-15T10:08:07.686Z,20.75
2023-02-15T10:09:31.178Z,19.20
2023-02-15T10:10:42.421Z,20.27
2023-02-15T10:12:18.071Z,19.88
2023-02-15T10:13:42.945Z,19.30
2023-02-15T10:14:51.283Z,20.50
2023-02-15T10:16:05.376Z,20.10
2023-02-15T10:17:32.550Z,18.80
2023-02-15T10:19:11.975Z,21.02
2023-02-15T10:20:22.775Z,18.55
2023-02-15T10:21:30.747Z,18.77
2023-02-15T10:22:48.125Z,18.88
2023-02-15T10:24:40.516Z,18.15
2023-02-15T10:26:17.811Z,18.50
2023-02-15T10:27:23.862Z,19.75
2023-02-15T10:28:43.318Z,20.08
2023-02-15T10:29:51.551Z,19.23
2023-02-15T10:31:06.039Z,17.45
2023-02-15T10:32:26.593Z,20.00
2023-02-15T10:33:42.456Z,19.30
2023-02-15T10:34:52.733Z,18.55
2023-02-15T10:35:57.320Z,20.15
2023-02-15T10:37:18.151Z,20.17
2023-02-15T10:38:23.955Z,19.48
2023-02-15T10:39:42.875Z,17.92
2023-02-15T10:41:03.512Z,20.33
2023-02-15T10:42:06.349Z,20.45
2023-02-15T10:43:12.419Z,18.45
2023-02-15T10:44:22.591Z,19.55
2023-02-15T10:45:34.056Z,19.58
2023-02-15T10:46:38.877Z,21.05
2023-02-15T10:48:08.288Z,20.38
2023-02-15T10:49:31.956Z,18.90
2023-02-15T10:50:43.201Z,19.20
2023-02-15T10:52:02.821Z,18.80
2023-02-15T10:53:23.492Z,18.30
2023-02-15T10:55:06.858Z,18.88
2023-02-15T10:56:27.904Z,18.20
2023-02-15T10:57:32.743Z,18.23
2023-02-15T10:58:57.753Z,17.45
2023-02-15T11:00:04.559Z,18.70
2023-02-15T11:01:26.188Z,18.20
2023-02-15T11:03:26.272Z,19.45
2023-02-15T11:04:42.212Z,20.08
2023-02-15T11:06:06.224Z,19.98
2023-02-15T11:07:17.302Z,20.80
2023-02-15T11:08:21.572Z,20.38
2023-02-15T11:09:26.756Z,21.00
2023-02-15T11:10:47.643Z,21.95
2023-02-15T11:11:54.667Z,20.02
2023-02-15T11:12:59.060Z,23.20
2023-02-15T11:14:07.124Z,22.65
2023-02-15T11:15:42.802Z,21.67
2023-02-15T11:16:52.393Z,20.48
2023-02-15T11:18:02.309Z,20.17
2023-02-15T11:19:14.682Z,20.85
2023-02-15T11:20:29.734Z,21.55
2023-02-15T11:21:40.836Z,18.45
2023-02-15T11:22:42.593Z,17.90
2023-02-15T11:23:49.052Z,18.35
2023-02-15T11:24:52.064Z,17.77
2023-02-15T11:26:17.652Z,19.50
2023-02-15T11:27:24.531Z,19.52
2023-02-15T11:28:33.114Z,18.48
2023-02-15T11:29:39.978Z,18.55
2023-02-15T11:30:53.178Z,18.75
2023-02-15T11:32:00.822Z,20.42
2023-02-15T11:33:07.246Z,18.27
2023-02-15T11:34:20.155Z,23.00
2023-02-15T11:35:43.400Z,21.10
2023-02-15T11:36:47.520Z,19.95
2023-02-15T11:38:14.839Z,20.38
2023-02-15T11:39:19.470Z,21.33
2023-02-15T11:40:46.439Z,21.38
2023-02-15T11:41:55.339Z,20.85
2023-02-15T11:43:05.353Z,18.38
2023-02-15T11:44:13.296Z,19.42
2023-02-15T11:45:35.772Z,17.48
2023-02-15T11:46:38.704Z,17.90
2023-02-15T11:47:40.340Z,18.80
2023-02-15T11:48:44.665Z,19.45
2023-02-15T11:49:46.958Z,19.58
2023-02-15T11:50:49.023Z,19.70
2023-02-15T11:51:52.314Z,20.30
2023-02-15T11:53:01.263Z,19.80
2023-02-15T11:54:04.358Z,19.40
2023-02-15T11:55:15.645Z,20.73
2023-02-15T11:56:20.750Z,21.70
2023-02-15T11:57:42.509Z,19.03
2023-02-15T11:58:55.225Z,20.47
2023-02-15T12:00:08.274Z,20.80
2023-02-15T12:01:24.413Z,20.17
2023-02-15T12:02:32.081Z,20.57
2023-02-15T12:03:50.726Z,21.80
2023-02-15T12:04:58.350Z,20.70
2023-02-15T12:06:04.787Z,18.03
2023-02-15T12:07:28.192Z,20.50
2023-02-15T12:08:40.057Z,19.40
2023-02-15T12:09:54.642Z,18.20
2023-02-15T12:11:23.482Z,17.63
2023-02-15T12:12:32.117Z,18.50
2023-02-15T12:13:33.863Z,17.57
2023-02-15T12:14:50.146Z,17.97
2023-02-15T12:15:55.653Z,18.10
2023-02-15T12:16:58.568Z,17.33
2023-02-15T12:18:00.456Z,16.73
2023-02-15T12:19:07.878Z,18.13
2023-02-15T12:20:16.665Z,17.30
2023-02-15T12:21:35.829Z,17.77
2023-02-15T12:22:38.810Z,17.70
2023-02-15T12:23:54.040Z,17.27
2023-02-15T12:25:00.265Z,16.70
2023-02-15T12:26:03.545Z,15.90
2023-02-15T12:27:17.577Z,15.90
2023-02-15T12:28:34.188Z,17.07
2023-02-15T12:30:19.697Z,16.30
2023-02-15T12:31:26.176Z,17.57
2023-02-15T12:32:50.874Z,20.30
2023-02-15T12:33:56.333Z,17.03
2023-02-15T12:35:09.545Z,17.47
2023-02-15T12:36:25.673Z,18.80
2023-02-15T12:37:35.883Z,18.60
2023-02-15T12:38:38.982Z,19.63
2023-02-15T12:39:55.467Z,17.60
2023-02-15T12:41:08.751Z,17.47
2023-02-15T12:42:20.492Z,17.70
2023-02-15T12:43:35.310Z,16.10
2023-02-15T12:44:38.206Z,16.70
2023-02-15T12:45:40.127Z,17.23
2023-02-15T12:46:46.561Z,16.40
2023-02-15T12:48:11.349Z,16.70
2023-02-15T12:49:26.272Z,16.23
2023-02-15T12:50:35.713Z,17.40
2023-02-15T12:52:18.810Z,16.37
2023-02-15T12:53:24.070Z,16.37
2023-02-15T12:54:30.085Z,18.40
2023-02-15T12:55:31.905Z,17.73
2023-02-15T12:56:35.032Z,17.17
2023-02-15T12:57:37.043Z,17.20
2023-02-15T12:58:41.367Z,17.37
2023-02-15T13:00:02.368Z,18.10
2023-02-15T13:01:10.372Z,17.73
2023-02-15T13:02:30.356Z,17.43
2023-02-15T13:03:33.268Z,17.23
2023-02-15T13:04:35.370Z,16.83
2023-02-15T13:05:45.294Z,18.23
2023-02-15T13:06:53.526Z,17.87
2023-02-15T13:07:59.371Z,19.30
2023-02-15T13:09:33.325Z,16.80
2023-02-15T13:10:40.578Z,17.40
2023-02-15T13:11:45.827Z,17.97
2023-02-15T13:12:48.734Z,18.27
2023-02-15T13:14:02.652Z,17.43
2023-02-15T13:15:23.728Z,18.00
2023-02-15T13:16:39.937Z,15.93
2023-02-15T13:17:45.115Z,17.70
2023-02-15T13:18:51.751Z,17.77
2023-02-15T13:19:55.565Z,17.80
2023-02-15T13:20:58.162Z,16.93
2023-02-15T13:22:08.793Z,16.60
2023-02-15T13:23:28.641Z,15.90
2023-02-15T13:24:36.965Z,18.10
2023-02-15T13:25:51.528Z,18.63
2023-02-15T13:27:12.875Z,17.10
2023-02-15T13:28:20.609Z,16.50
2023-02-15T13:29:35.278Z,16.50
2023-02-15T13:30:47.634Z,17.70
2023-02-15T13:31:51.520Z,17.50
2023-02-15T13:32:59.675Z,17.33
2023-02-15T13:34:18.149Z,16.73
2023-02-15T13:35:22.704Z,19.83
2023-02-15T13:36:36.491Z,18.60
2023-02-15T13:38:03.857Z,18.13
2023-02-15T13:39:14.818Z,16.67
2023-02-15T13:40:23.398Z,18.33
2023-02-15T13:41:35.583Z,17.80
2023-02-15T13:42:42.983Z,18.20
2023-02-15T13:43:51.302Z,17.80
2023-02-15T13:45:24.367Z,17.80
2023-02-15T13:46:53.995Z,19.50
2023-02-15T13:48:04.020Z,17.97
2023-02-15T13:49:36.845Z,18.20
2023-02-15T13:50:58.095Z,17.37
2023-02-15T13:52:14.789Z,17.10
2023-02-15T13:53:21.928Z,17.07
2023-02-15T13:54:41.831Z,19.20
2023-02-15T13:56:02.707Z,18.00
2023-02-15T13:57:33.502Z,17.60
2023-02-15T13:58:48.310Z,18.60
2023-02-15T14:00:24.175Z,22.40
2023-02-15T14:01:46.816Z,21.50
2023-02-15T14:03:16.916Z,19.00
2023-02-15T14:04:41.087Z,19.53
2023-02-15T14:05:48.732Z,18.23
2023-02-15T14:06:57.912Z,18.50
2023-02-15T14:08:11.489Z,17.90
2023-02-15T14:09:30.506Z,19.03
2023-02-15T14:10:54.191Z,17.87
2023-02-15T14:12:20.893Z,20.53
2023-02-15T14:13:51.078Z,19.00
2023-02-15T14:15:01.948Z,19.67
2023-02-15T14:16:23.264Z,19.27
2023-02-15T14:17:37.570Z,20.47
2023-02-15T14:19:03.173Z,20.27
2023-02-15T14:20:07.892Z,20.80
2023-02-15T14:21:22.813Z,19.63
2023-02-15T14:22:39.813Z,20.33
2023-02-15T14:24:19.593Z,20.23
2023-02-15T14:25:39.824Z,21.93
2023-02-15T14:26:53.338Z,24.20
2023-02-15T14:28:17.476Z,22.83
2023-02-15T14:29:50.559Z,24.20
2023-02-15T14:30:54.350Z,21.80
2023-02-15T14:32:05.651Z,23.90
2023-02-15T14:33:07.441Z,24.03
2023-02-15T14:34:22.677Z,22.20
2023-02-15T14:35:28.899Z,20.87
2023-02-15T14:36:32.331Z,22.40
2023-02-15T14:37:43.419Z,20.73
2023-02-15T14:38:48.023Z,21.20
2023-02-15T14:40:26.915Z,22.17